Timeline UpdatesTrip UpdatesNews PostsPvt PostsTravel TipsAdmin PostsConv PostsFollowed PostsChat RequestsBlog PostsPNR Posts

Disclaimer
Search
 
 
Sat Apr 19, 2014 04:49:03 ISTHomeTrainsΣChainsAtlasPNRForumGalleryNewsFAQTripsMembersLoginFeedback
No Recent News for this Train
Other Trains in the News **new
Latest...
.
Sat Jan 26, 2013 (03:08PM)
⇐ Return Journey: Train# 59440

59439/Mumbai Central-Ahmedabad Passenger

Feb 22 2014 (11:49PM)
Change Departure Station:
Change Arrival Station:
Post a Train Travel TipPost a Train Travel Tip **new
Post a Comment/Question/Picture/VideoPost a Comment/Question/Picture/Video
Pantry/Catering
✕ NO Pantry Car
✕ NO Catering
RSA - Rake Sharing
59439 and 59442 share rakes.
Rake/Coach Composition
LOCO-SLR-GEN-GEN-GEN-S3-S2-S1-LD-GEN-GEN-GEN-GEN-GEN-GEN-GEN-SLR
Loco
BL WCAM-1/BRC WAG-5A
News    PNR    Forum    Time-Table    Availability    Fare Chart    Map    Arr/Dep History    Trips    Gallery    ΣChains    X/O    Timeline    
Travel Time: 10h 25m    46 halts    Distance: 298 km    Avg Speed: 28 km/hr
Type: Passenger
Zone: WR/Western
Departs @ 18:00 (Avg 6m late)
Platform# 2
SMTWTFS
Valsad/BL 
Arrives @ 04:25 +1 night (Avg 8m late)
Platform# 4
SMTWTFS
Ahmedabad Junction/ADI 

46 halts. 60 intermediate Stations between Valsad and Ahmedabad Junction

Show ALL intermediate Stations  Show Old Time-Table

#CodeStation NameX/OArrivesAvgDepartsAvgHaltPFDay#KmSpeedElevZoneAddress
1BCTMumbai Central (9)  -12:15+041-194.4273mWRMumbai-400 008, Maharashtra
2DDRMumbai Dadar Western (6)  12:28+312:30+72m51-188.5306mWRMumbai, Maharashtra
3ADHMumbai Andheri (9)  12:52+412:54+52m81-177.33112mWRMumbai, Maharashtra
4BVIMumbai Borivali (8)X  13:18+013:20+122m61-164.73519mWRMumbai - 400092, Maharashtra
5BSRVasai Road (7)  13:50+213:52+32m41-147.3467mWRThane-401202, Maharashtra
6VRVirar (8)X  14:03+314:05+52m31-138.9466mWRThane, Maharashtra
7VTNVaitarna (2)  14:16+514:18+42m11-130.4673mWRThane, Maharashtra
8SAHSaphale (2)X  14:25+914:27+82m11-122.6778mWRThane, Maharashtra
9KLVKelve Road (3)  14:32+1014:34+102m21-116.27210mWRThane, Maharashtra
10PLGPalghar (3)XO  14:41+1214:43+152m11-107.75619mWRPalghar, Maharashtra
11BORBoisar (3)XO  14:55+1614:57+272m11-96.51817mWRBoisar Tel.no-02525-266626, Maharashtra
12VGNVangaon (3)X  15:28+815:30+112m--1-87.15311mWRThane, Maharashtra
13DRDDahanu Road (5)X  15:44+915:46+92m11-74.86712mWRDahanu, Maharashtra
14GVDGholvad (4)  15:56+1015:58+102m--1-63.66114mWRGholvad, Maharashtra
15UBRUmbargam Road (3)XO  16:07+1116:09+122m11-54.52930mWRUmbergaon, Gujarat
16SJNSanjan (3)X  16:20+1016:22+122m--1-49.16322mWRSanjan, Gujarat
17BLDBhilad (3)  16:33+1316:35+172m--1-37.55833mWRBhilad, Gujarat
18KEBKarambeli (2)XO  16:40+1116:42+102m--1-32.72429mWRNational Highway 8, Gujarat
19VAPIVapi (3)X  16:58+817:00+102m11-26.25027mWRVapi, Gujarat
20BAGDBagwada (2)XO  17:08+1017:09+101m--1-19.54322mWRNH8, Gujarat
21UVDUdvada (3)X  17:13+1117:15+112m--1-16.77218mWRUdvada, Gujarat
22PADPardi (3)X  17:20+1317:22+132m--1-10.76019mWRValsad, Gujarat
23ATULAtul (3)O  17:26+1417:28+142m--1-6.72922mWRValsad, Gujarat
24BL»Valsad (3)»XO  17:42+818:00+618m210.06715mWRValsad, Gujarat
25DGIDungri (3)  18:08+1018:10+112m118.96120mWRNH 8, Gujarat
26JRSJoravasan (2)  18:15+1518:17+142m1114.04015mWRJoravasan, Gujarat
27BIMBilimora Junction (4)XO  18:23+1118:25+182m--117.91811mWRBilimora, Gujarat
28AMLAmalsad (3)  18:44+818:46+112m--123.54612mWRAmalsad, Gujarat
29ACLAncheli (2)  18:51+1018:53+92m--127.33420mWRNavsari, Gujarat
30VDHVedchha (3)X  18:59+819:01+172m--130.72313mWRNavsari, Gujarat
31NVSNavsari (3)X  19:23+819:25+92m3139.15114mWRNavsari, Gujarat
32MRLMaroli (3)XO  19:35+919:37+142m--147.52715mWRMaroli, Gujarat
33SCHSachin (3)XO  19:52+819:54+72m1154.24911mWRKansad Road Sachin, Gujarat
34BHETBhestan (2)  20:01+820:03+122m1159.92613mWRSurat, Gujarat
35UDNUdhna Junction (3)XO  20:14+1120:16+212m1164.7716mWRUdhna 394210, Gujarat
36STSurat (4)XO  20:49+321:09+420m2168.73919mWRSurat 395001, Gujarat
37URNUtran (3)O  21:15+1221:17+112m--172.66415mWRSurat, Gujarat
38KSEKosad (2)  21:20+1521:22+162m--175.83717mWRSurat, Gujarat
39GTXGothangam (2)XO  21:28+1721:30+212m--179.42019mWRAmroli Sayan Rd, Gujarat
40SYNSayan (3)  21:39+1721:41+172m--182.45421mWRSayan Satellite town, Gujarat
41KIMKim (2)  21:52+1821:54+182m--192.35818mWRNH 8, Gujarat
42KSBKosamba Junction (3)X  22:02+1822:04+182m--1100.16630mWRKosamba, Gujarat
43HATHathuran (2)  22:08+2022:10+192m--1104.54632mWRKosamba, Gujarat
44PAOPanoli (3)XO  22:15+2022:17+222m--1108.33629mWRPanoli, Gujarat
45AKVAnkleshwar Junction (4)X  22:34+1722:36+172m21118.64019mWRAnkleshwar, Gujarat
46BHBharuch Junction (5)X  22:50+1422:52+152m31128.06619mWRBharuch, Gujarat
47NIUNabipur (3)X  23:03+1923:05+182m--1140.05824mWRNabipur, Gujarat
48VREVarediya (4)X  23:12+1923:14+202m--1146.86621mWRNH 8, Gujarat
49PLJPalej (4)XO  23:20+2323:22+302m--1153.44429mWRPalej, Gujarat
50MYGMiyagam Karjan (2)X  23:43+2423:45+232m21168.76329mWRKarjan, Gujarat
51ITAItola (4)O  23:56+2723:58+272m--1180.32627mWRNational Highway 8, Gujarat
52BRCVadodara Junction (7)X  00:40+1600:50+1710m--2198.53136mWRVadodara, Gujarat
53BJWBajva (3)X  01:04+2601:06+262m--2205.82338mWRVadodara, Gujarat
54RNORanoli (2)  01:16+2601:18+262m--2209.58339mWRVadodara District, Gujarat
55NDRNandesari (2)X  01:21+2701:23+262m--2213.76042mWRNandesari, Gujarat
56VDAVasad Junction (3)XO  01:28+2601:30+262m--2218.74640mWRVasad, Gujarat
57ADDAdas Road (4)X  01:36+2601:38+252m--2223.34142mWRNational Highway 8, Gujarat
58VXDVadod (3)X  01:44+2501:46+242m--2227.42444mWRAnand District, Gujarat
59ANNDAnand Junction (6)  02:03+1602:08+175m--2234.37444mWRAnand, Gujarat
60KBRVKanjari Boriyavi Junction (4)X  02:14+2102:16+212m--2241.74739mWRKanjari, Gujarat
61UTDUtarsanda (4)XO  02:23+2202:25+222m--2247.23340mWRUttarsanda, Gujarat
62NDNadiad Junction (4)XO  02:35+1902:43+178m--2252.76237mWRNadiad, Gujarat
63GTEGothaj (2)XO  02:52+1802:54+222m--2261.92832mWRState Highway 3, Gujarat
64MHDMahemdavad Kheda Road (4)X  03:12+1203:14+162m--2270.35037mWRMahemdavad, Gujarat
65NEPNenpur (2)X  03:19+1603:21+162m--2274.43435mWRState Highway 3, Gujarat
66KANJKanij (3)  03:26+1403:28+152m--2277.33339mWRBareja-Barejadi Rd, Gujarat
67BJDBarejadi (3)XO  03:36+1303:38+142m--2281.61442mWRBareja-Barejadi Rd, Gujarat
68GERGeratpur (2)O  03:52+803:54+122m--2285.07944mWRAhmadabad, Gujarat
69VTAVatva (4)XO  03:58+1404:00+142m--2290.34849mWRDist. Ahmedabad 382445, Gujarat
70MANManinagar (2)O  04:06+1404:08+142m12295.11150mWRAhmadabad, Gujarat
71ADI•Ahmedabad Junction (12)•  04:25+8-42298.3-51mWRAhmedabad, Gujarat
Scroll to Top
Scroll to Bottom